Homeworth, Ohio
Current Conditions -  °F | °C
As of 5:51 AM on Friday 19 Dec 2014 (Local Time) from KCAK Reporting Station
Light Snow Light Snow  
Wind Chill: -6°   Ceiling: 500
Heat Index: -2°   Visibility: 4mi
Dew Point: -4°   Wind: 7mph
Humidity: 85%   Direction: 290°WNW
Pressure: 30.16"   Gusts: NA
Location:  40.84°N, 81.07°W
Report Text: KCAK 191051Z 29006KT 4SM -SN BR OVC005 M02/M04 A3016 RMK AO2 SLP227 P0000 T10171039
Loading
Personal Weather Stations






























Interactive Weather Map New forecast layout! Learn more

10-Day Weather Forecast

Advertisements
Track Severe Weather on mobile